sensor_id;sensor_type;location;lat;lon;timestamp;P1;durP1;ratioP1;P2;durP2;ratioP2
10353;SDS011;5223;50.924;13.338;2022-09-20T00:02:08;0.80;;;0.80;;
10353;SDS011;5223;50.924;13.338;2022-09-20T00:04:38;0.80;;;0.80;;
10353;SDS011;5223;50.924;13.338;2022-09-20T00:07:12;1.20;;;1.20;;
10353;SDS011;5223;50.924;13.338;2022-09-20T00:09:42;0.80;;;0.80;;
10353;SDS011;5223;50.924;13.338;2022-09-20T00:12:13;0.90;;;0.90;;
10353;SDS011;5223;50.924;13.338;2022-09-20T00:14:43;1.03;;;1.03;;
10353;SDS011;5223;50.924;13.338;2022-09-20T00:17:13;0.80;;;0.80;;
10353;SDS011;5223;50.924;13.338;2022-09-20T00:19:42;0.87;;;0.87;;
10353;SDS011;5223;50.924;13.338;2022-09-20T00:22:15;0.90;;;0.90;;
10353;SDS011;5223;50.924;13.338;2022-09-20T00:24:43;0.93;;;0.93;;
10353;SDS011;5223;50.924;13.338;2022-09-20T00:27:16;0.80;;;0.80;;
10353;SDS011;5223;50.924;13.338;2022-09-20T00:29:45;0.90;;;0.90;;
10353;SDS011;5223;50.924;13.338;2022-09-20T00:32:17;0.90;;;0.90;;
10353;SDS011;5223;50.924;13.338;2022-09-20T00:34:54;1.37;;;1.37;;
10353;SDS011;5223;50.924;13.338;2022-09-20T00:37:40;0.90;;;0.90;;
10353;SDS011;5223;50.924;13.338;2022-09-20T00:40:11;0.80;;;0.80;;
10353;SDS011;5223;50.924;13.338;2022-09-20T00:42:45;1.00;;;1.00;;
10353;SDS011;5223;50.924;13.338;2022-09-20T00:45:19;0.80;;;0.80;;
10353;SDS011;5223;50.924;13.338;2022-09-20T00:47:54;1.03;;;1.03;;
10353;SDS011;5223;50.924;13.338;2022-09-20T00:50:32;0.80;;;0.80;;
10353;SDS011;5223;50.924;13.338;2022-09-20T00:53:08;0.80;;;0.80;;
10353;SDS011;5223;50.924;13.338;2022-09-20T00:55:46;0.77;;;0.77;;
10353;SDS011;5223;50.924;13.338;2022-09-20T00:58:17;1.90;;;1.40;;
10353;SDS011;5223;50.924;13.338;2022-09-20T01:00:56;0.70;;;0.70;;
10353;SDS011;5223;50.924;13.338;2022-09-20T01:03:28;1.33;;;1.23;;
10353;SDS011;5223;50.924;13.338;2022-09-20T01:06:07;0.80;;;0.80;;
10353;SDS011;5223;50.924;13.338;2022-09-20T01:08:44;0.70;;;0.70;;
10353;SDS011;5223;50.924;13.338;2022-09-20T01:11:18;0.80;;;0.80;;
10353;SDS011;5223;50.924;13.338;2022-09-20T01:13:45;0.80;;;0.80;;
10353;SDS011;5223;50.924;13.338;2022-09-20T01:16:16;0.60;;;0.60;;
10353;SDS011;5223;50.924;13.338;2022-09-20T01:18:45;0.70;;;0.70;;
10353;SDS011;5223;50.924;13.338;2022-09-20T01:21:15;1.00;;;1.00;;
10353;SDS011;5223;50.924;13.338;2022-09-20T01:23:57;0.70;;;0.70;;
10353;SDS011;5223;50.924;13.338;2022-09-20T01:29:41;0.80;;;0.80;;
10353;SDS011;5223;50.924;13.338;2022-09-20T01:32:24;0.97;;;0.97;;
10353;SDS011;5223;50.924;13.338;2022-09-20T01:34:59;0.70;;;0.70;;
10353;SDS011;5223;50.924;13.338;2022-09-20T01:37:38;0.70;;;0.70;;
10353;SDS011;5223;50.924;13.338;2022-09-20T01:40:12;0.70;;;0.70;;
10353;SDS011;5223;50.924;13.338;2022-09-20T01:42:46;1.00;;;1.00;;
10353;SDS011;5223;50.924;13.338;2022-09-20T01:45:26;1.27;;;1.27;;
10353;SDS011;5223;50.924;13.338;2022-09-20T01:47:58;0.80;;;0.80;;
10353;SDS011;5223;50.924;13.338;2022-09-20T01:50:32;1.53;;;1.43;;
10353;SDS011;5223;50.924;13.338;2022-09-20T01:53:36;0.80;;;0.80;;
10353;SDS011;5223;50.924;13.338;2022-09-20T01:56:16;0.90;;;0.90;;
10353;SDS011;5223;50.924;13.338;2022-09-20T01:59:01;1.50;;;1.40;;
10353;SDS011;5223;50.924;13.338;2022-09-20T02:07:39;0.70;;;0.70;;
10353;SDS011;5223;50.924;13.338;2022-09-20T02:10:20;1.17;;;1.17;;
10353;SDS011;5223;50.924;13.338;2022-09-20T02:12:51;0.90;;;0.90;;
10353;SDS011;5223;50.924;13.338;2022-09-20T02:15:38;0.90;;;0.90;;
10353;SDS011;5223;50.924;13.338;2022-09-20T02:18:20;1.13;;;1.13;;
10353;SDS011;5223;50.924;13.338;2022-09-20T02:20:57;3.90;;;1.27;;
10353;SDS011;5223;50.924;13.338;2022-09-20T02:23:36;0.80;;;0.80;;
10353;SDS011;5223;50.924;13.338;2022-09-20T02:26:14;1.00;;;1.00;;
10353;SDS011;5223;50.924;13.338;2022-09-20T02:28:54;0.90;;;0.90;;
10353;SDS011;5223;50.924;13.338;2022-09-20T02:31:33;0.97;;;0.97;;
10353;SDS011;5223;50.924;13.338;2022-09-20T02:34:21;0.80;;;0.80;;
10353;SDS011;5223;50.924;13.338;2022-09-20T02:37:04;1.23;;;1.13;;
10353;SDS011;5223;50.924;13.338;2022-09-20T02:39:42;0.80;;;0.80;;
10353;SDS011;5223;50.924;13.338;2022-09-20T02:42:14;0.90;;;0.90;;
10353;SDS011;5223;50.924;13.338;2022-09-20T02:44:51;0.90;;;0.90;;
10353;SDS011;5223;50.924;13.338;2022-09-20T02:47:30;0.80;;;0.80;;
10353;SDS011;5223;50.924;13.338;2022-09-20T02:50:07;0.80;;;0.80;;
10353;SDS011;5223;50.924;13.338;2022-09-20T02:52:48;0.90;;;0.90;;
10353;SDS011;5223;50.924;13.338;2022-09-20T02:55:30;0.80;;;0.80;;
10353;SDS011;5223;50.924;13.338;2022-09-20T02:58:02;0.90;;;0.90;;
10353;SDS011;5223;50.924;13.338;2022-09-20T03:00:35;1.60;;;1.50;;
10353;SDS011;5223;50.924;13.338;2022-09-20T03:03:12;1.23;;;1.17;;
10353;SDS011;5223;50.924;13.338;2022-09-20T03:05:50;0.80;;;0.80;;
10353;SDS011;5223;50.924;13.338;2022-09-20T03:08:23;1.00;;;1.00;;
10353;SDS011;5223;50.924;13.338;2022-09-20T03:11:11;0.90;;;0.90;;
10353;SDS011;5223;50.924;13.338;2022-09-20T03:13:55;0.87;;;0.87;;
10353;SDS011;5223;50.924;13.338;2022-09-20T03:16:30;0.80;;;0.80;;
10353;SDS011;5223;50.924;13.338;2022-09-20T03:19:01;1.00;;;1.00;;
10353;SDS011;5223;50.924;13.338;2022-09-20T03:21:39;0.90;;;0.90;;
10353;SDS011;5223;50.924;13.338;2022-09-20T03:24:17;0.93;;;0.93;;
10353;SDS011;5223;50.924;13.338;2022-09-20T03:26:57;0.90;;;0.90;;
10353;SDS011;5223;50.924;13.338;2022-09-20T03:29:35;1.67;;;1.67;;
10353;SDS011;5223;50.924;13.338;2022-09-20T03:32:18;2.30;;;1.20;;
10353;SDS011;5223;50.924;13.338;2022-09-20T03:34:57;0.80;;;0.80;;
10353;SDS011;5223;50.924;13.338;2022-09-20T03:37:44;0.80;;;0.80;;
10353;SDS011;5223;50.924;13.338;2022-09-20T03:40:22;0.70;;;0.70;;
10353;SDS011;5223;50.924;13.338;2022-09-20T03:43:03;0.90;;;0.90;;
10353;SDS011;5223;50.924;13.338;2022-09-20T03:45:50;0.90;;;0.90;;
10353;SDS011;5223;50.924;13.338;2022-09-20T03:48:27;0.90;;;0.90;;
10353;SDS011;5223;50.924;13.338;2022-09-20T03:51:03;0.70;;;0.70;;
10353;SDS011;5223;50.924;13.338;2022-09-20T03:53:45;0.80;;;0.80;;
10353;SDS011;5223;50.924;13.338;2022-09-20T03:56:21;1.00;;;1.00;;
10353;SDS011;5223;50.924;13.338;2022-09-20T03:59:11;0.87;;;0.87;;
10353;SDS011;5223;50.924;13.338;2022-09-20T04:01:53;0.70;;;0.70;;
10353;SDS011;5223;50.924;13.338;2022-09-20T04:04:38;0.80;;;0.80;;
10353;SDS011;5223;50.924;13.338;2022-09-20T04:07:12;1.30;;;1.30;;
10353;SDS011;5223;50.924;13.338;2022-09-20T04:09:48;0.80;;;0.80;;
10353;SDS011;5223;50.924;13.338;2022-09-20T04:12:21;0.97;;;0.97;;
10353;SDS011;5223;50.924;13.338;2022-09-20T04:15:04;0.80;;;0.80;;
10353;SDS011;5223;50.924;13.338;2022-09-20T04:17:40;0.70;;;0.70;;
10353;SDS011;5223;50.924;13.338;2022-09-20T04:20:16;0.83;;;0.83;;
10353;SDS011;5223;50.924;13.338;2022-09-20T04:22:48;0.80;;;0.80;;
10353;SDS011;5223;50.924;13.338;2022-09-20T04:25:26;1.03;;;1.03;;
10353;SDS011;5223;50.924;13.338;2022-09-20T04:27:58;0.90;;;0.90;;
10353;SDS011;5223;50.924;13.338;2022-09-20T04:30:35;1.10;;;1.10;;
10353;SDS011;5223;50.924;13.338;2022-09-20T04:33:12;0.70;;;0.70;;
10353;SDS011;5223;50.924;13.338;2022-09-20T04:35:44;0.80;;;0.80;;
10353;SDS011;5223;50.924;13.338;2022-09-20T04:38:31;0.97;;;0.97;;
10353;SDS011;5223;50.924;13.338;2022-09-20T04:41:20;0.80;;;0.80;;
10353;SDS011;5223;50.924;13.338;2022-09-20T04:44:25;0.90;;;0.90;;
10353;SDS011;5223;50.924;13.338;2022-09-20T04:47:16;0.90;;;0.90;;
10353;SDS011;5223;50.924;13.338;2022-09-20T04:50:00;0.80;;;0.80;;
10353;SDS011;5223;50.924;13.338;2022-09-20T04:52:45;3.13;;;1.23;;
10353;SDS011;5223;50.924;13.338;2022-09-20T04:55:42;0.90;;;0.90;;
10353;SDS011;5223;50.924;13.338;2022-09-20T05:04:24;0.90;;;0.90;;
10353;SDS011;5223;50.924;13.338;2022-09-20T05:12:57;1.00;;;1.00;;
10353;SDS011;5223;50.924;13.338;2022-09-20T05:15:34;1.10;;;1.10;;
10353;SDS011;5223;50.924;13.338;2022-09-20T05:18:17;1.10;;;1.10;;
10353;SDS011;5223;50.924;13.338;2022-09-20T05:23:59;1.40;;;1.40;;
10353;SDS011;5223;50.924;13.338;2022-09-20T05:26:36;1.30;;;1.30;;
10353;SDS011;5223;50.924;13.338;2022-09-20T05:29:13;1.30;;;1.30;;
10353;SDS011;5223;50.924;13.338;2022-09-20T05:31:48;1.37;;;1.37;;
10353;SDS011;5223;50.924;13.338;2022-09-20T05:34:29;1.10;;;1.10;;
10353;SDS011;5223;50.924;13.338;2022-09-20T05:37:25;1.30;;;1.30;;
10353;SDS011;5223;50.924;13.338;2022-09-20T05:40:04;1.30;;;1.30;;
10353;SDS011;5223;50.924;13.338;2022-09-20T05:42:38;1.20;;;1.20;;
10353;SDS011;5223;50.924;13.338;2022-09-20T05:45:16;1.30;;;1.30;;
10353;SDS011;5223;50.924;13.338;2022-09-20T05:47:53;1.50;;;1.50;;
10353;SDS011;5223;50.924;13.338;2022-09-20T05:50:32;1.70;;;1.70;;
10353;SDS011;5223;50.924;13.338;2022-09-20T05:53:23;2.10;;;2.00;;
10353;SDS011;5223;50.924;13.338;2022-09-20T05:56:01;1.90;;;1.80;;
10353;SDS011;5223;50.924;13.338;2022-09-20T06:01:31;1.80;;;1.80;;
10353;SDS011;5223;50.924;13.338;2022-09-20T06:04:13;1.70;;;1.70;;
10353;SDS011;5223;50.924;13.338;2022-09-20T06:06:50;2.60;;;1.90;;
10353;SDS011;5223;50.924;13.338;2022-09-20T06:10:04;1.70;;;1.70;;
10353;SDS011;5223;50.924;13.338;2022-09-20T06:15:55;1.40;;;1.40;;
10353;SDS011;5223;50.924;13.338;2022-09-20T06:18:25;2.70;;;2.50;;
10353;SDS011;5223;50.924;13.338;2022-09-20T06:20:57;1.40;;;1.40;;
10353;SDS011;5223;50.924;13.338;2022-09-20T06:23:36;1.53;;;1.53;;
10353;SDS011;5223;50.924;13.338;2022-09-20T06:26:12;1.90;;;1.80;;
10353;SDS011;5223;50.924;13.338;2022-09-20T06:28:48;1.80;;;1.70;;
10353;SDS011;5223;50.924;13.338;2022-09-20T06:31:34;1.50;;;1.50;;
10353;SDS011;5223;50.924;13.338;2022-09-20T06:34:12;1.60;;;1.60;;
10353;SDS011;5223;50.924;13.338;2022-09-20T06:36:49;2.50;;;2.40;;
10353;SDS011;5223;50.924;13.338;2022-09-20T06:39:48;1.70;;;1.70;;
10353;SDS011;5223;50.924;13.338;2022-09-20T06:42:33;2.07;;;1.97;;
10353;SDS011;5223;50.924;13.338;2022-09-20T06:45:11;2.03;;;1.93;;
10353;SDS011;5223;50.924;13.338;2022-09-20T06:47:56;1.60;;;1.60;;
10353;SDS011;5223;50.924;13.338;2022-09-20T06:50:28;1.70;;;1.70;;
10353;SDS011;5223;50.924;13.338;2022-09-20T06:53:02;2.00;;;1.90;;
10353;SDS011;5223;50.924;13.338;2022-09-20T06:55:41;1.77;;;1.77;;
10353;SDS011;5223;50.924;13.338;2022-09-20T06:58:18;1.80;;;1.80;;
10353;SDS011;5223;50.924;13.338;2022-09-20T07:00:51;2.20;;;2.10;;
10353;SDS011;5223;50.924;13.338;2022-09-20T07:03:29;2.30;;;2.20;;
10353;SDS011;5223;50.924;13.338;2022-09-20T07:06:03;2.30;;;2.20;;
10353;SDS011;5223;50.924;13.338;2022-09-20T07:08:34;2.33;;;2.23;;
10353;SDS011;5223;50.924;13.338;2022-09-20T07:11:11;1.93;;;1.87;;
10353;SDS011;5223;50.924;13.338;2022-09-20T07:13:43;2.10;;;2.00;;
10353;SDS011;5223;50.924;13.338;2022-09-20T07:16:19;2.20;;;2.10;;
10353;SDS011;5223;50.924;13.338;2022-09-20T07:19:07;2.47;;;2.37;;
10353;SDS011;5223;50.924;13.338;2022-09-20T07:21:42;2.37;;;2.27;;
10353;SDS011;5223;50.924;13.338;2022-09-20T07:24:11;1.50;;;1.50;;
10353;SDS011;5223;50.924;13.338;2022-09-20T07:26:53;1.60;;;1.60;;
10353;SDS011;5223;50.924;13.338;2022-09-20T07:29:29;1.50;;;1.50;;
10353;SDS011;5223;50.924;13.338;2022-09-20T07:32:00;2.50;;;2.40;;
10353;SDS011;5223;50.924;13.338;2022-09-20T07:34:51;1.50;;;1.50;;
10353;SDS011;5223;50.924;13.338;2022-09-20T07:37:30;1.80;;;1.80;;
10353;SDS011;5223;50.924;13.338;2022-09-20T07:40:06;2.93;;;2.73;;
10353;SDS011;5223;50.924;13.338;2022-09-20T07:42:40;2.40;;;2.20;;
10353;SDS011;5223;50.924;13.338;2022-09-20T07:45:23;2.30;;;2.20;;
10353;SDS011;5223;50.924;13.338;2022-09-20T07:48:05;2.23;;;2.13;;
10353;SDS011;5223;50.924;13.338;2022-09-20T07:50:48;1.93;;;1.83;;
10353;SDS011;5223;50.924;13.338;2022-09-20T07:53:23;2.20;;;2.10;;
10353;SDS011;5223;50.924;13.338;2022-09-20T07:56:06;2.53;;;2.43;;
10353;SDS011;5223;50.924;13.338;2022-09-20T07:58:42;1.73;;;1.73;;
10353;SDS011;5223;50.924;13.338;2022-09-20T08:01:23;2.27;;;2.17;;
10353;SDS011;5223;50.924;13.338;2022-09-20T08:04:02;2.30;;;2.20;;
10353;SDS011;5223;50.924;13.338;2022-09-20T08:07:00;2.00;;;1.90;;
10353;SDS011;5223;50.924;13.338;2022-09-20T08:09:29;2.10;;;2.00;;
10353;SDS011;5223;50.924;13.338;2022-09-20T08:12:05;2.30;;;2.20;;
10353;SDS011;5223;50.924;13.338;2022-09-20T08:14:44;2.33;;;2.23;;
10353;SDS011;5223;50.924;13.338;2022-09-20T08:17:17;2.50;;;2.40;;
10353;SDS011;5223;50.924;13.338;2022-09-20T08:19:56;2.60;;;2.50;;
10353;SDS011;5223;50.924;13.338;2022-09-20T08:22:36;2.80;;;2.70;;
10353;SDS011;5223;50.924;13.338;2022-09-20T08:25:09;2.40;;;2.30;;
10353;SDS011;5223;50.924;13.338;2022-09-20T08:27:46;2.80;;;2.70;;
10353;SDS011;5223;50.924;13.338;2022-09-20T08:30:25;2.60;;;2.50;;
10353;SDS011;5223;50.924;13.338;2022-09-20T08:32:59;2.80;;;2.70;;
10353;SDS011;5223;50.924;13.338;2022-09-20T08:35:47;2.80;;;2.70;;
10353;SDS011;5223;50.924;13.338;2022-09-20T08:38:34;3.20;;;3.10;;
10353;SDS011;5223;50.924;13.338;2022-09-20T08:41:09;2.80;;;2.70;;
10353;SDS011;5223;50.924;13.338;2022-09-20T08:43:43;2.77;;;2.67;;
10353;SDS011;5223;50.924;13.338;2022-09-20T08:46:18;2.50;;;2.40;;
10353;SDS011;5223;50.924;13.338;2022-09-20T08:48:53;2.57;;;2.47;;
10353;SDS011;5223;50.924;13.338;2022-09-20T08:51:29;2.40;;;2.30;;
10353;SDS011;5223;50.924;13.338;2022-09-20T08:54:12;2.30;;;2.20;;
10353;SDS011;5223;50.924;13.338;2022-09-20T08:56:59;2.50;;;2.40;;
10353;SDS011;5223;50.924;13.338;2022-09-20T08:59:33;2.23;;;2.13;;
10353;SDS011;5223;50.924;13.338;2022-09-20T09:02:16;2.40;;;2.20;;
10353;SDS011;5223;50.924;13.338;2022-09-20T09:04:50;2.70;;;2.60;;
10353;SDS011;5223;50.924;13.338;2022-09-20T09:07:23;1.80;;;1.80;;
10353;SDS011;5223;50.924;13.338;2022-09-20T09:10:03;2.20;;;2.10;;
10353;SDS011;5223;50.924;13.338;2022-09-20T09:12:44;2.13;;;2.03;;
10353;SDS011;5223;50.924;13.338;2022-09-20T09:15:20;2.27;;;2.17;;
10353;SDS011;5223;50.924;13.338;2022-09-20T09:17:58;2.50;;;2.40;;
10353;SDS011;5223;50.924;13.338;2022-09-20T09:20:39;2.40;;;2.30;;
10353;SDS011;5223;50.924;13.338;2022-09-20T09:23:20;2.60;;;2.50;;
10353;SDS011;5223;50.924;13.338;2022-09-20T09:26:16;2.50;;;2.40;;
10353;SDS011;5223;50.924;13.338;2022-09-20T09:29:08;2.20;;;2.10;;
10353;SDS011;5223;50.924;13.338;2022-09-20T09:31:53;2.00;;;1.90;;
10353;SDS011;5223;50.924;13.338;2022-09-20T09:34:26;2.40;;;2.30;;
10353;SDS011;5223;50.924;13.338;2022-09-20T09:37:04;2.70;;;2.60;;
10353;SDS011;5223;50.924;13.338;2022-09-20T09:39:41;2.35;;;2.25;;
10353;SDS011;5223;50.924;13.338;2022-09-20T09:42:29;2.58;;;2.47;;
10353;SDS011;5223;50.924;13.338;2022-09-20T09:45:11;2.55;;;2.45;;
10353;SDS011;5223;50.924;13.338;2022-09-20T09:47:52;2.70;;;2.60;;
10353;SDS011;5223;50.924;13.338;2022-09-20T09:50:32;3.45;;;3.10;;
10353;SDS011;5223;50.924;13.338;2022-09-20T09:53:09;3.25;;;3.13;;
10353;SDS011;5223;50.924;13.338;2022-09-20T09:55:50;3.20;;;3.10;;
10353;SDS011;5223;50.924;13.338;2022-09-20T10:01:32;3.05;;;2.95;;
10353;SDS011;5223;50.924;13.338;2022-09-20T10:04:09;3.33;;;3.22;;
10353;SDS011;5223;50.924;13.338;2022-09-20T10:06:53;4.10;;;3.90;;
10353;SDS011;5223;50.924;13.338;2022-09-20T10:09:34;3.40;;;3.30;;
10353;SDS011;5223;50.924;13.338;2022-09-20T10:12:13;3.35;;;3.25;;
10353;SDS011;5223;50.924;13.338;2022-09-20T10:14:59;3.20;;;3.10;;
10353;SDS011;5223;50.924;13.338;2022-09-20T10:18:00;3.10;;;3.00;;
10353;SDS011;5223;50.924;13.338;2022-09-20T10:20:49;2.88;;;2.78;;
10353;SDS011;5223;50.924;13.338;2022-09-20T10:23:37;2.70;;;2.60;;
10353;SDS011;5223;50.924;13.338;2022-09-20T10:26:40;2.70;;;2.60;;
10353;SDS011;5223;50.924;13.338;2022-09-20T10:29:21;2.67;;;2.58;;
10353;SDS011;5223;50.924;13.338;2022-09-20T10:32:04;2.40;;;2.30;;
10353;SDS011;5223;50.924;13.338;2022-09-20T10:37:52;2.35;;;2.25;;
10353;SDS011;5223;50.924;13.338;2022-09-20T10:40:32;2.90;;;2.80;;
10353;SDS011;5223;50.924;13.338;2022-09-20T10:43:23;3.08;;;2.97;;
10353;SDS011;5223;50.924;13.338;2022-09-20T10:46:01;3.40;;;3.30;;
10353;SDS011;5223;50.924;13.338;2022-09-20T10:48:40;3.42;;;3.33;;
10353;SDS011;5223;50.924;13.338;2022-09-20T10:51:12;4.70;;;4.50;;
10353;SDS011;5223;50.924;13.338;2022-09-20T10:54:05;4.78;;;4.57;;
10353;SDS011;5223;50.924;13.338;2022-09-20T10:56:46;4.68;;;4.50;;
10353;SDS011;5223;50.924;13.338;2022-09-20T10:59:18;4.90;;;4.70;;
10353;SDS011;5223;50.924;13.338;2022-09-20T11:08:15;5.00;;;4.80;;
10353;SDS011;5223;50.924;13.338;2022-09-20T11:10:58;5.38;;;5.07;;
10353;SDS011;5223;50.924;13.338;2022-09-20T11:13:37;4.80;;;4.60;;
10353;SDS011;5223;50.924;13.338;2022-09-20T11:16:11;4.20;;;4.10;;
10353;SDS011;5223;50.924;13.338;2022-09-20T11:18:48;4.53;;;4.40;;
10353;SDS011;5223;50.924;13.338;2022-09-20T11:21:33;3.88;;;3.78;;
10353;SDS011;5223;50.924;13.338;2022-09-20T11:27:13;3.60;;;3.50;;
10353;SDS011;5223;50.924;13.338;2022-09-20T11:29:54;3.33;;;3.22;;
10353;SDS011;5223;50.924;13.338;2022-09-20T11:32:39;3.20;;;3.10;;
10353;SDS011;5223;50.924;13.338;2022-09-20T11:35:25;2.80;;;2.70;;
10353;SDS011;5223;50.924;13.338;2022-09-20T11:38:03;2.75;;;2.65;;
10353;SDS011;5223;50.924;13.338;2022-09-20T11:40:52;2.92;;;2.83;;
10353;SDS011;5223;50.924;13.338;2022-09-20T11:44:28;2.70;;;2.50;;
10353;SDS011;5223;50.924;13.338;2022-09-20T11:47:03;2.47;;;2.38;;
10353;SDS011;5223;50.924;13.338;2022-09-20T11:49:42;2.30;;;2.20;;
10353;SDS011;5223;50.924;13.338;2022-09-20T11:52:26;2.00;;;1.90;;
10353;SDS011;5223;50.924;13.338;2022-09-20T11:58:07;2.00;;;1.90;;
10353;SDS011;5223;50.924;13.338;2022-09-20T12:00:54;2.00;;;1.90;;
10353;SDS011;5223;50.924;13.338;2022-09-20T12:03:30;1.80;;;1.80;;
10353;SDS011;5223;50.924;13.338;2022-09-20T12:06:05;2.15;;;2.05;;
10353;SDS011;5223;50.924;13.338;2022-09-20T12:08:48;1.73;;;1.73;;
10353;SDS011;5223;50.924;13.338;2022-09-20T12:11:28;1.70;;;1.70;;
10353;SDS011;5223;50.924;13.338;2022-09-20T12:14:02;1.70;;;1.70;;
10353;SDS011;5223;50.924;13.338;2022-09-20T12:16:44;1.90;;;1.80;;
10353;SDS011;5223;50.924;13.338;2022-09-20T12:22:25;1.80;;;1.80;;
10353;SDS011;5223;50.924;13.338;2022-09-20T12:28:01;1.80;;;1.80;;
10353;SDS011;5223;50.924;13.338;2022-09-20T12:30:37;1.50;;;1.50;;
10353;SDS011;5223;50.924;13.338;2022-09-20T12:36:25;1.70;;;1.70;;
10353;SDS011;5223;50.924;13.338;2022-09-20T12:38:59;1.60;;;1.60;;
10353;SDS011;5223;50.924;13.338;2022-09-20T12:41:44;1.80;;;1.80;;
10353;SDS011;5223;50.924;13.338;2022-09-20T12:44:24;2.40;;;2.30;;
10353;SDS011;5223;50.924;13.338;2022-09-20T12:47:03;2.35;;;2.25;;
10353;SDS011;5223;50.924;13.338;2022-09-20T12:49:47;2.17;;;2.08;;
10353;SDS011;5223;50.924;13.338;2022-09-20T13:01:39;1.70;;;1.70;;
10353;SDS011;5223;50.924;13.338;2022-09-20T13:07:25;3.72;;;2.20;;
10353;SDS011;5223;50.924;13.338;2022-09-20T13:10:01;1.80;;;1.80;;
10353;SDS011;5223;50.924;13.338;2022-09-20T13:12:35;2.20;;;2.10;;
10353;SDS011;5223;50.924;13.338;2022-09-20T13:15:10;1.50;;;1.50;;
10353;SDS011;5223;50.924;13.338;2022-09-20T13:17:57;1.60;;;1.60;;
10353;SDS011;5223;50.924;13.338;2022-09-20T13:20:28;1.60;;;1.60;;
10353;SDS011;5223;50.924;13.338;2022-09-20T13:23:04;2.00;;;1.90;;
10353;SDS011;5223;50.924;13.338;2022-09-20T13:25:44;2.20;;;2.10;;
10353;SDS011;5223;50.924;13.338;2022-09-20T13:28:20;2.50;;;2.40;;
10353;SDS011;5223;50.924;13.338;2022-09-20T13:34:24;2.90;;;2.70;;
10353;SDS011;5223;50.924;13.338;2022-09-20T13:37:02;2.83;;;2.72;;
10353;SDS011;5223;50.924;13.338;2022-09-20T13:39:31;2.85;;;2.75;;
10353;SDS011;5223;50.924;13.338;2022-09-20T13:42:13;2.35;;;2.25;;
10353;SDS011;5223;50.924;13.338;2022-09-20T13:44:48;2.67;;;2.58;;
10353;SDS011;5223;50.924;13.338;2022-09-20T13:47:31;2.30;;;2.20;;
10353;SDS011;5223;50.924;13.338;2022-09-20T13:50:17;2.30;;;2.20;;
10353;SDS011;5223;50.924;13.338;2022-09-20T13:52:56;2.50;;;2.40;;
10353;SDS011;5223;50.924;13.338;2022-09-20T13:55:30;2.53;;;2.42;;
10353;SDS011;5223;50.924;13.338;2022-09-20T13:58:03;2.40;;;2.30;;
10353;SDS011;5223;50.924;13.338;2022-09-20T14:00:37;2.10;;;2.00;;
10353;SDS011;5223;50.924;13.338;2022-09-20T14:03:16;2.20;;;2.10;;
10353;SDS011;5223;50.924;13.338;2022-09-20T14:06:06;2.20;;;2.10;;
10353;SDS011;5223;50.924;13.338;2022-09-20T14:08:54;1.92;;;1.90;;
10353;SDS011;5223;50.924;13.338;2022-09-20T14:11:32;2.10;;;2.00;;
10353;SDS011;5223;50.924;13.338;2022-09-20T14:14:13;1.83;;;1.80;;
10353;SDS011;5223;50.924;13.338;2022-09-20T14:16:46;1.80;;;1.80;;
10353;SDS011;5223;50.924;13.338;2022-09-20T14:19:24;2.10;;;2.00;;
10353;SDS011;5223;50.924;13.338;2022-09-20T14:27:51;2.03;;;1.92;;
10353;SDS011;5223;50.924;13.338;2022-09-20T14:30:32;2.80;;;2.70;;
10353;SDS011;5223;50.924;13.338;2022-09-20T14:33:14;2.60;;;2.50;;
10353;SDS011;5223;50.924;13.338;2022-09-20T14:35:50;7.97;;;3.35;;
10353;SDS011;5223;50.924;13.338;2022-09-20T14:38:28;2.90;;;2.80;;
10353;SDS011;5223;50.924;13.338;2022-09-20T14:41:00;2.50;;;2.40;;
10353;SDS011;5223;50.924;13.338;2022-09-20T14:43:53;2.80;;;2.70;;
10353;SDS011;5223;50.924;13.338;2022-09-20T14:46:34;2.10;;;2.00;;
10353;SDS011;5223;50.924;13.338;2022-09-20T14:49:20;2.30;;;2.20;;
10353;SDS011;5223;50.924;13.338;2022-09-20T14:51:52;2.33;;;2.22;;
10353;SDS011;5223;50.924;13.338;2022-09-20T14:54:26;2.40;;;2.30;;
10353;SDS011;5223;50.924;13.338;2022-09-20T14:56:54;2.50;;;2.40;;
10353;SDS011;5223;50.924;13.338;2022-09-20T14:59:35;2.45;;;2.35;;
10353;SDS011;5223;50.924;13.338;2022-09-20T15:02:10;2.50;;;2.40;;
10353;SDS011;5223;50.924;13.338;2022-09-20T15:04:51;2.55;;;2.45;;
10353;SDS011;5223;50.924;13.338;2022-09-20T15:07:36;2.50;;;2.40;;
10353;SDS011;5223;50.924;13.338;2022-09-20T15:10:14;2.55;;;2.45;;
10353;SDS011;5223;50.924;13.338;2022-09-20T15:12:55;2.60;;;2.50;;
10353;SDS011;5223;50.924;13.338;2022-09-20T15:15:39;2.53;;;2.42;;
10353;SDS011;5223;50.924;13.338;2022-09-20T15:18:20;2.40;;;2.30;;
10353;SDS011;5223;50.924;13.338;2022-09-20T15:21:02;2.30;;;2.20;;
10353;SDS011;5223;50.924;13.338;2022-09-20T15:23:39;2.30;;;2.20;;
10353;SDS011;5223;50.924;13.338;2022-09-20T15:26:21;2.10;;;2.00;;
10353;SDS011;5223;50.924;13.338;2022-09-20T15:28:52;2.30;;;2.20;;
10353;SDS011;5223;50.924;13.338;2022-09-20T15:31:30;2.20;;;2.10;;
10353;SDS011;5223;50.924;13.338;2022-09-20T15:34:04;1.92;;;1.83;;
10353;SDS011;5223;50.924;13.338;2022-09-20T15:36:38;1.80;;;1.80;;
10353;SDS011;5223;50.924;13.338;2022-09-20T15:39:17;2.00;;;1.90;;
10353;SDS011;5223;50.924;13.338;2022-09-20T15:41:50;3.70;;;3.60;;
10353;SDS011;5223;50.924;13.338;2022-09-20T15:44:23;13.90;;;13.30;;
10353;SDS011;5223;50.924;13.338;2022-09-20T15:47:02;13.15;;;12.65;;
10353;SDS011;5223;50.924;13.338;2022-09-20T15:49:41;13.30;;;12.70;;
10353;SDS011;5223;50.924;13.338;2022-09-20T15:52:21;13.38;;;12.77;;
10353;SDS011;5223;50.924;13.338;2022-09-20T15:54:49;13.20;;;12.60;;
10353;SDS011;5223;50.924;13.338;2022-09-20T15:57:24;12.90;;;12.40;;
10353;SDS011;5223;50.924;13.338;2022-09-20T15:59:55;12.23;;;11.73;;
10353;SDS011;5223;50.924;13.338;2022-09-20T16:02:33;12.40;;;11.90;;
10353;SDS011;5223;50.924;13.338;2022-09-20T16:05:07;12.10;;;11.60;;
10353;SDS011;5223;50.924;13.338;2022-09-20T16:07:36;11.63;;;11.13;;
10353;SDS011;5223;50.924;13.338;2022-09-20T16:10:11;11.13;;;10.70;;
10353;SDS011;5223;50.924;13.338;2022-09-20T16:12:46;10.90;;;10.50;;
10353;SDS011;5223;50.924;13.338;2022-09-20T16:15:13;10.90;;;10.50;;
10353;SDS011;5223;50.924;13.338;2022-09-20T16:17:46;10.73;;;10.33;;
10353;SDS011;5223;50.924;13.338;2022-09-20T16:20:31;11.00;;;10.60;;
10353;SDS011;5223;50.924;13.338;2022-09-20T16:23:01;10.60;;;10.20;;
10353;SDS011;5223;50.924;13.338;2022-09-20T16:25:32;10.20;;;9.80;;
10353;SDS011;5223;50.924;13.338;2022-09-20T16:28:07;9.90;;;9.50;;
10353;SDS011;5223;50.924;13.338;2022-09-20T16:30:40;10.20;;;9.80;;
10353;SDS011;5223;50.924;13.338;2022-09-20T16:33:15;10.13;;;9.73;;
10353;SDS011;5223;50.924;13.338;2022-09-20T16:35:57;9.80;;;9.40;;
10353;SDS011;5223;50.924;13.338;2022-09-20T16:38:27;10.00;;;9.60;;
10353;SDS011;5223;50.924;13.338;2022-09-20T16:40:58;9.70;;;9.30;;
10353;SDS011;5223;50.924;13.338;2022-09-20T16:43:34;9.90;;;9.50;;
10353;SDS011;5223;50.924;13.338;2022-09-20T16:46:05;9.37;;;9.07;;
10353;SDS011;5223;50.924;13.338;2022-09-20T16:48:34;9.30;;;9.00;;
10353;SDS011;5223;50.924;13.338;2022-09-20T16:51:07;8.53;;;8.23;;
10353;SDS011;5223;50.924;13.338;2022-09-20T16:53:48;8.90;;;8.50;;
10353;SDS011;5223;50.924;13.338;2022-09-20T16:56:25;8.30;;;8.00;;
10353;SDS011;5223;50.924;13.338;2022-09-20T16:58:58;8.10;;;7.80;;
10353;SDS011;5223;50.924;13.338;2022-09-20T17:01:31;7.97;;;7.67;;
10353;SDS011;5223;50.924;13.338;2022-09-20T17:04:10;7.50;;;7.20;;
10353;SDS011;5223;50.924;13.338;2022-09-20T17:06:47;8.67;;;8.37;;
10353;SDS011;5223;50.924;13.338;2022-09-20T17:09:18;6.97;;;6.77;;
10353;SDS011;5223;50.924;13.338;2022-09-20T17:11:47;7.57;;;7.27;;
10353;SDS011;5223;50.924;13.338;2022-09-20T17:14:20;6.97;;;6.77;;